Time;durP1;ratioP1;P1;durP2;ratioP2;P2;SDS_P1;SDS_P2;PMS_P1;PMS_P2;Temp;Humidity;BMP_temperature;BMP_pressure;BME280_temperature;BME280_humidity;BME280_pressure;Samples;Min_cycle;Max_cycle;Signal;HPM_P1;HPM_P2
2023/01/25 00:01:42;;;;;;;21.73;12.65;;;;;;;;;;4961238;28;20020;-94
2023/01/25 00:04:08;;;;;;;24.55;12.70;;;;;;;;;;4960984;28;20035;-95
2023/01/25 00:09:38;;;;;;;26.58;14.27;;;;;;;;;;4961019;28;20046;-95
2023/01/25 00:12:04;;;;;;;27.52;14.15;;;;;;;;;;4962124;28;20034;-95
2023/01/25 00:14:30;;;;;;;26.55;15.07;;;;;;;;;;4961930;28;20028;-94
2023/01/25 00:16:56;;;;;;;31.88;15.63;;;;;;;;;;4961968;28;20015;-94
2023/01/25 00:19:22;;;;;;;28.80;15.20;;;;;;;;;;4961690;28;20066;-95
2023/01/25 00:25:06;;;;;;;27.00;15.02;;;;;;;;;;4961667;28;20403;-95
2023/01/25 00:27:32;;;;;;;31.45;14.63;;;;;;;;;;4961764;28;20039;-93
2023/01/25 00:29:58;;;;;;;26.75;14.07;;;;;;;;;;4961281;28;20110;-93
2023/01/25 00:32:28;;;;;;;28.65;14.65;;;;;;;;;;4961581;28;20019;-93
2023/01/25 00:38:00;;;;;;;31.48;15.85;;;;;;;;;;4961617;29;20049;-95
2023/01/25 00:40:26;;;;;;;26.98;13.93;;;;;;;;;;4961613;28;20130;-94
2023/01/25 00:42:53;;;;;;;26.15;14.18;;;;;;;;;;4960235;28;20032;-95
2023/01/25 00:45:19;;;;;;;31.45;17.17;;;;;;;;;;4960273;28;20035;-94
2023/01/25 00:47:45;;;;;;;25.48;14.10;;;;;;;;;;4961485;28;20024;-93
2023/01/25 00:50:11;;;;;;;25.33;14.70;;;;;;;;;;4960900;28;20406;-92
2023/01/25 00:52:37;;;;;;;29.50;15.75;;;;;;;;;;4961051;28;20074;-93
2023/01/25 00:55:03;;;;;;;31.05;16.10;;;;;;;;;;4959927;28;20054;-94
2023/01/25 00:57:29;;;;;;;28.90;15.40;;;;;;;;;;4961101;28;20039;-94
2023/01/25 00:59:55;;;;;;;32.13;17.10;;;;;;;;;;4960018;28;20039;-93
2023/01/25 01:02:21;;;;;;;26.58;14.18;;;;;;;;;;4961095;28;20458;-91
2023/01/25 01:04:55;;;;;;;22.80;12.23;;;;;;;;;;4959873;28;20031;-91
2023/01/25 01:07:21;;;;;;;24.95;13.25;;;;;;;;;;4960676;28;20437;-92
2023/01/25 01:09:47;;;;;;;25.02;13.25;;;;;;;;;;4960571;28;20414;-92
2023/01/25 01:12:13;;;;;;;25.63;13.93;;;;;;;;;;4960937;29;20047;-92
2023/01/25 01:14:39;;;;;;;21.88;12.98;;;;;;;;;;4959704;28;20031;-92
2023/01/25 01:17:05;;;;;;;24.40;13.63;;;;;;;;;;4961066;28;20050;-92
2023/01/25 01:19:32;;;;;;;31.33;15.50;;;;;;;;;;4960036;28;20034;-90
2023/01/25 01:25:02;;;;;;;24.15;12.50;;;;;;;;;;4960563;28;20492;-93
2023/01/25 01:27:28;;;;;;;22.98;11.95;;;;;;;;;;4959450;28;20035;-93
2023/01/25 01:29:54;;;;;;;20.48;11.48;;;;;;;;;;4960218;28;20027;-92
2023/01/25 01:32:20;;;;;;;21.88;11.98;;;;;;;;;;4960520;28;20402;-93
2023/01/25 01:40:53;;;;;;;26.15;11.95;;;;;;;;;;4960438;29;20453;-94
2023/01/25 01:43:23;;;;;;;22.83;12.07;;;;;;;;;;4960465;28;20024;-93
2023/01/25 01:45:54;;;;;;;22.73;12.38;;;;;;;;;;4960167;28;20050;-93
2023/01/25 01:48:36;;;;;;;23.47;12.60;;;;;;;;;;4959202;28;20426;-94
2023/01/25 01:51:12;;;;;;;20.35;11.38;;;;;;;;;;4960162;28;20036;-94
2023/01/25 01:53:39;;;;;;;23.30;13.25;;;;;;;;;;4959912;28;20062;-94
2023/01/25 01:56:08;;;;;;;19.80;12.13;;;;;;;;;;4959318;28;20030;-93
2023/01/25 01:58:35;;;;;;;20.48;11.23;;;;;;;;;;4959955;28;20130;-94
2023/01/25 02:01:01;;;;;;;18.70;11.10;;;;;;;;;;4959950;28;20023;-94
2023/01/25 02:03:27;;;;;;;19.58;11.43;;;;;;;;;;4960142;28;20043;-95
2023/01/25 02:09:18;;;;;;;19.90;11.43;;;;;;;;;;4961552;29;20050;-95
2023/01/25 02:11:44;;;;;;;24.63;11.80;;;;;;;;;;4960294;28;20031;-94
2023/01/25 02:14:10;;;;;;;22.45;12.52;;;;;;;;;;4960331;28;20046;-95
2023/01/25 02:16:36;;;;;;;23.80;12.80;;;;;;;;;;4960083;28;20023;-93
2023/01/25 02:19:03;;;;;;;23.25;12.55;;;;;;;;;;4959617;28;20131;-94
2023/01/25 02:24:32;;;;;;;21.50;11.23;;;;;;;;;;4959927;28;20034;-95
2023/01/25 02:26:59;;;;;;;20.20;10.23;;;;;;;;;;4959821;28;20382;-94
2023/01/25 02:29:27;;;;;;;20.30;10.30;;;;;;;;;;4959498;28;20100;-94
2023/01/25 02:32:02;;;;;;;20.40;10.95;;;;;;;;;;4958374;28;20028;-95
2023/01/25 02:34:28;;;;;;;19.75;11.60;;;;;;;;;;4958649;28;20067;-94
2023/01/25 02:39:58;;;;;;;19.33;11.18;;;;;;;;;;4959411;29;20429;-94
2023/01/25 02:42:24;;;;;;;20.75;11.15;;;;;;;;;;4959629;28;20024;-95
2023/01/25 02:44:50;;;;;;;18.65;11.27;;;;;;;;;;4959509;28;20026;-93
2023/01/25 02:47:16;;;;;;;20.05;10.60;;;;;;;;;;4958516;28;20450;-96
2023/01/25 02:49:42;;;;;;;22.15;12.63;;;;;;;;;;4958918;28;20035;-95
2023/01/25 02:52:08;;;;;;;23.25;12.82;;;;;;;;;;4958636;28;20078;-94
2023/01/25 02:54:34;;;;;;;21.60;12.23;;;;;;;;;;4959693;28;20023;-94
2023/01/25 02:57:01;;;;;;;19.08;10.73;;;;;;;;;;4958331;28;20031;-94
2023/01/25 02:59:27;;;;;;;18.23;10.05;;;;;;;;;;4959459;28;20051;-94
2023/01/25 03:01:53;;;;;;;17.75;9.43;;;;;;;;;;4959444;28;20118;-95
2023/01/25 03:04:19;;;;;;;18.85;11.07;;;;;;;;;;4958261;28;20031;-94
2023/01/25 03:06:45;;;;;;;16.58;9.75;;;;;;;;;;4958300;28;20031;-93
2023/01/25 03:09:11;;;;;;;20.10;10.95;;;;;;;;;;4958236;28;20034;-93
2023/01/25 03:11:37;;;;;;;17.95;9.82;;;;;;;;;;4959122;28;20031;-93
2023/01/25 03:14:03;;;;;;;20.00;10.40;;;;;;;;;;4959259;28;20023;-95
2023/01/25 03:16:30;;;;;;;16.67;9.60;;;;;;;;;;4958201;28;20034;-94
2023/01/25 03:18:56;;;;;;;19.08;10.30;;;;;;;;;;4959227;28;20028;-95
2023/01/25 03:24:25;;;;;;;18.90;9.80;;;;;;;;;;4959015;28;20424;-96
2023/01/25 03:27:10;;;;;;;18.88;9.88;;;;;;;;;;4958870;28;20102;-93
2023/01/25 03:29:36;;;;;;;18.48;10.93;;;;;;;;;;4959190;28;20042;-95
2023/01/25 03:32:03;;;;;;;18.15;10.57;;;;;;;;;;4958225;28;20062;-95
2023/01/25 03:34:29;;;;;;;20.05;10.52;;;;;;;;;;4958073;28;20448;-94
2023/01/25 03:37:33;;;;;;;17.83;10.18;;;;;;;;;;4958890;28;20023;-95
2023/01/25 03:39:59;;;;;;;20.20;10.80;;;;;;;;;;4958777;28;20106;-95
2023/01/25 03:42:25;;;;;;;18.70;11.55;;;;;;;;;;4957973;28;20418;-95
2023/01/25 03:44:51;;;;;;;21.02;11.48;;;;;;;;;;4962059;28;20032;-95
2023/01/25 03:47:17;;;;;;;19.85;10.88;;;;;;;;;;4962347;28;20038;-94
2023/01/25 03:49:43;;;;;;;18.48;10.98;;;;;;;;;;4962191;28;20027;-96
2023/01/25 03:52:09;;;;;;;20.63;11.45;;;;;;;;;;4962673;28;20027;-94
2023/01/25 03:54:35;;;;;;;19.98;10.75;;;;;;;;;;4962396;28;20026;-94
2023/01/25 03:57:01;;;;;;;20.95;10.98;;;;;;;;;;4961018;28;20024;-95
2023/01/25 03:59:27;;;;;;;22.70;13.82;;;;;;;;;;4961166;28;20497;-96
2023/01/25 04:01:53;;;;;;;23.80;12.98;;;;;;;;;;4960997;28;20118;-95
2023/01/25 04:04:20;;;;;;;57.55;47.28;;;;;;;;;;4961145;28;20035;-94
2023/01/25 04:06:46;;;;;;;33.33;24.33;;;;;;;;;;4961960;28;20456;-94
2023/01/25 04:09:13;;;;;;;38.40;29.30;;;;;;;;;;4962126;28;20031;-95
2023/01/25 04:11:39;;;;;;;35.30;24.38;;;;;;;;;;4961992;28;20414;-94
2023/01/25 04:14:05;;;;;;;25.42;18.67;;;;;;;;;;4962209;28;20027;-96
2023/01/25 04:16:31;;;;;;;23.55;15.07;;;;;;;;;;4961850;28;20027;-95
2023/01/25 04:18:58;;;;;;;21.48;13.05;;;;;;;;;;4961626;28;20031;-94
2023/01/25 04:21:24;;;;;;;21.85;13.57;;;;;;;;;;4960974;28;20031;-96
2023/01/25 04:23:51;;;;;;;32.22;16.75;;;;;;;;;;4961445;28;20034;-94
2023/01/25 04:26:17;;;;;;;29.42;17.17;;;;;;;;;;4961571;28;20031;-95
2023/01/25 04:28:43;;;;;;;30.85;16.02;;;;;;;;;;4960845;28;20031;-96
2023/01/25 04:31:10;;;;;;;26.27;14.98;;;;;;;;;;4960676;28;20057;-94
2023/01/25 04:33:36;;;;;;;22.42;13.35;;;;;;;;;;4961875;28;20027;-95
2023/01/25 04:36:02;;;;;;;20.23;11.77;;;;;;;;;;4960307;28;20074;-95
2023/01/25 04:38:28;;;;;;;21.17;12.02;;;;;;;;;;4961010;29;20039;-96
2023/01/25 04:40:54;;;;;;;21.08;12.25;;;;;;;;;;4961791;29;20410;-91
2023/01/25 04:43:21;;;;;;;22.38;12.50;;;;;;;;;;4961843;29;20354;-90
2023/01/25 04:45:47;;;;;;;22.42;13.30;;;;;;;;;;4961517;28;20054;-90
2023/01/25 04:48:14;;;;;;;20.98;12.82;;;;;;;;;;4961380;29;20023;-89
2023/01/25 04:50:45;;;;;;;20.48;12.00;;;;;;;;;;4961379;28;20027;-89
2023/01/25 04:53:12;;;;;;;17.85;10.77;;;;;;;;;;4960148;29;20031;-90
2023/01/25 04:55:38;;;;;;;22.58;12.40;;;;;;;;;;4960727;28;20080;-90
2023/01/25 04:58:04;;;;;;;20.80;11.50;;;;;;;;;;4961211;29;20063;-90
2023/01/25 05:00:31;;;;;;;26.33;13.25;;;;;;;;;;4960752;29;20031;-90
2023/01/25 05:02:57;;;;;;;33.53;18.23;;;;;;;;;;4959811;29;20170;-90
2023/01/25 05:05:23;;;;;;;29.38;15.13;;;;;;;;;;4961006;29;20031;-89
2023/01/25 05:07:49;;;;;;;35.47;16.92;;;;;;;;;;4960910;29;20027;-89
2023/01/25 05:10:15;;;;;;;39.53;18.05;;;;;;;;;;4961012;29;20031;-90
2023/01/25 05:12:41;;;;;;;37.30;18.58;;;;;;;;;;4959850;29;20071;-90
2023/01/25 05:15:07;;;;;;;35.85;16.95;;;;;;;;;;4960528;29;20034;-90
2023/01/25 05:17:33;;;;;;;30.40;15.10;;;;;;;;;;4961280;29;20030;-90
2023/01/25 05:19:59;;;;;;;24.77;13.30;;;;;;;;;;4959533;29;20071;-89
2023/01/25 05:28:13;;;;;;;22.50;12.60;;;;;;;;;;4941583;29;20038;-91
2023/01/25 05:30:40;;;;;;;27.80;14.75;;;;;;;;;;4956320;29;20415;-89
2023/01/25 05:33:06;;;;;;;121.68;40.25;;;;;;;;;;4941388;29;20144;-89
2023/01/25 05:35:32;;;;;;;100.90;33.85;;;;;;;;;;4956142;29;20071;-89
2023/01/25 05:38:31;;;;;;;64.03;27.50;;;;;;;;;;4956094;29;20063;-88
2023/01/25 05:41:00;;;;;;;73.57;34.65;;;;;;;;;;4956053;28;20051;-90
2023/01/25 05:43:26;;;;;;;52.50;26.13;;;;;;;;;;4940909;29;20038;-90
2023/01/25 05:45:52;;;;;;;37.65;19.52;;;;;;;;;;4941364;29;20038;-90
2023/01/25 05:48:18;;;;;;;29.25;14.35;;;;;;;;;;4956031;29;20031;-91
2023/01/25 05:53:48;;;;;;;49.00;23.55;;;;;;;;;;4940964;29;20031;-90
2023/01/25 05:56:14;;;;;;;46.92;23.55;;;;;;;;;;4940654;29;20111;-90
2023/01/25 05:58:40;;;;;;;53.13;24.05;;;;;;;;;;4955619;29;20051;-90
2023/01/25 06:01:07;;;;;;;50.40;24.40;;;;;;;;;;4940973;29;20032;-90
2023/01/25 06:03:33;;;;;;;29.10;15.25;;;;;;;;;;4955850;29;20031;-91
2023/01/25 06:06:03;;;;;;;40.10;21.98;;;;;;;;;;4940677;29;20032;-91
2023/01/25 06:08:30;;;;;;;61.10;31.48;;;;;;;;;;4940560;29;20030;-90
2023/01/25 06:10:56;;;;;;;49.28;25.23;;;;;;;;;;4955538;29;20130;-90
2023/01/25 06:13:23;;;;;;;103.88;40.90;;;;;;;;;;4940547;29;20055;-90
2023/01/25 06:15:52;;;;;;;145.45;43.35;;;;;;;;;;4940397;29;20097;-90
2023/01/25 06:18:18;;;;;;;42.78;18.35;;;;;;;;;;4940533;29;20028;-91
2023/01/25 06:20:45;;;;;;;40.55;20.48;;;;;;;;;;4940665;29;20028;-90
2023/01/25 06:23:11;;;;;;;68.93;29.70;;;;;;;;;;4955367;29;20130;-91
2023/01/25 06:25:37;;;;;;;67.68;32.53;;;;;;;;;;4946457;28;20090;-91
2023/01/25 06:28:03;;;;;;;90.93;44.90;;;;;;;;;;4958462;29;20046;-90
2023/01/25 06:30:29;;;;;;;138.85;64.28;;;;;;;;;;4957991;28;20024;-91
2023/01/25 06:32:57;;;;;;;192.35;88.50;;;;;;;;;;4946629;29;20403;-92
2023/01/25 06:35:23;;;;;;;157.15;74.25;;;;;;;;;;4959570;28;20027;-89
2023/01/25 06:37:49;;;;;;;66.40;35.35;;;;;;;;;;4959618;29;20031;-91
2023/01/25 06:40:16;;;;;;;40.40;22.45;;;;;;;;;;4974397;28;20070;-92
2023/01/25 06:42:42;;;;;;;33.15;17.83;;;;;;;;;;4959383;28;20034;-91
2023/01/25 06:45:09;;;;;;;49.17;25.15;;;;;;;;;;4960064;28;20042;-96
2023/01/25 06:47:35;;;;;;;236.73;83.75;;;;;;;;;;4974432;28;20020;-93
2023/01/25 06:50:01;;;;;;;177.57;62.08;;;;;;;;;;4959460;28;20106;-92
2023/01/25 06:53:04;;;;;;;45.28;21.73;;;;;;;;;;4959623;29;20030;-92
2023/01/25 06:55:31;;;;;;;53.40;25.65;;;;;;;;;;4947144;28;20070;-93
2023/01/25 06:57:59;;;;;;;49.65;22.85;;;;;;;;;;4956744;29;20051;-92
2023/01/25 07:00:25;;;;;;;93.43;42.15;;;;;;;;;;4956744;28;20066;-92
2023/01/25 07:02:51;;;;;;;92.13;37.88;;;;;;;;;;4950813;29;20035;-91
2023/01/25 07:05:17;;;;;;;60.25;24.30;;;;;;;;;;4974339;28;20046;-91
2023/01/25 07:07:45;;;;;;;46.42;19.23;;;;;;;;;;4974102;28;20079;-92
2023/01/25 07:10:11;;;;;;;47.97;20.30;;;;;;;;;;4959151;28;20027;-92
2023/01/25 07:12:37;;;;;;;56.65;23.38;;;;;;;;;;4959255;29;20023;-92
2023/01/25 07:15:03;;;;;;;54.90;22.40;;;;;;;;;;4959052;28;20024;-92
2023/01/25 07:17:29;;;;;;;50.10;22.95;;;;;;;;;;4974310;28;20024;-91
2023/01/25 07:19:55;;;;;;;107.30;56.90;;;;;;;;;;4975297;28;20027;-92
2023/01/25 07:28:30;;;;;;;35.38;19.05;;;;;;;;;;4963234;28;20086;-92
2023/01/25 07:30:56;;;;;;;55.97;27.92;;;;;;;;;;4962365;29;20034;-93
2023/01/25 07:33:22;;;;;;;88.72;44.60;;;;;;;;;;4962818;29;20322;-93
2023/01/25 07:35:49;;;;;;;115.13;50.65;;;;;;;;;;4962497;28;20421;-93
2023/01/25 07:41:19;;;;;;;55.15;21.50;;;;;;;;;;4962786;28;20030;-92
2023/01/25 07:43:45;;;;;;;124.95;38.30;;;;;;;;;;4961577;28;20019;-92
2023/01/25 07:46:11;;;;;;;110.72;40.70;;;;;;;;;;4962324;29;20171;-93
2023/01/25 07:48:38;;;;;;;57.85;26.38;;;;;;;;;;4962600;29;20322;-92
2023/01/25 07:51:11;;;;;;;58.70;28.98;;;;;;;;;;4961274;28;20023;-92
2023/01/25 07:53:41;;;;;;;29.70;15.68;;;;;;;;;;4961280;28;20070;-92
2023/01/25 07:56:08;;;;;;;38.30;21.15;;;;;;;;;;4961094;28;20118;-93
2023/01/25 07:58:35;;;;;;;22.20;14.05;;;;;;;;;;4960940;28;20055;-93
2023/01/25 08:01:07;;;;;;;30.60;17.23;;;;;;;;;;4962313;29;20036;-92
2023/01/25 08:03:33;;;;;;;33.38;17.55;;;;;;;;;;4961928;29;20035;-94
2023/01/25 08:06:14;;;;;;;25.60;15.07;;;;;;;;;;4966214;28;20030;-92
2023/01/25 08:08:42;;;;;;;38.40;19.85;;;;;;;;;;4968077;28;20114;-94
2023/01/25 08:11:13;;;;;;;38.45;19.52;;;;;;;;;;4960849;28;20039;-94
2023/01/25 08:13:39;;;;;;;54.05;15.65;;;;;;;;;;4954386;28;20034;-94
2023/01/25 08:16:06;;;;;;;22.95;11.75;;;;;;;;;;4942878;29;20043;-92
2023/01/25 08:18:32;;;;;;;16.17;9.55;;;;;;;;;;4975362;28;20027;-90
2023/01/25 08:20:58;;;;;;;17.35;9.95;;;;;;;;;;4980697;28;20030;-93
2023/01/25 08:23:25;;;;;;;18.38;9.23;;;;;;;;;;4980073;28;20031;-92
2023/01/25 08:25:51;;;;;;;17.42;9.85;;;;;;;;;;4980778;28;20033;-93
2023/01/25 08:28:17;;;;;;;22.42;12.45;;;;;;;;;;4972796;28;20043;-92
2023/01/25 08:30:43;;;;;;;18.00;11.05;;;;;;;;;;4960922;28;20430;-92
2023/01/25 08:33:09;;;;;;;19.27;11.02;;;;;;;;;;4961664;28;20042;-93
2023/01/25 08:35:36;;;;;;;68.20;32.97;;;;;;;;;;4960647;28;20024;-93
2023/01/25 08:38:03;;;;;;;91.68;43.90;;;;;;;;;;4959912;28;20110;-91
2023/01/25 08:40:29;;;;;;;68.35;33.38;;;;;;;;;;4961467;29;20421;-92
2023/01/25 08:42:55;;;;;;;51.08;23.15;;;;;;;;;;4961057;29;20031;-94
2023/01/25 08:45:21;;;;;;;30.35;16.50;;;;;;;;;;4961309;28;20027;-92
2023/01/25 08:47:47;;;;;;;28.58;14.93;;;;;;;;;;4961263;28;20058;-94
2023/01/25 08:50:13;;;;;;;26.20;16.00;;;;;;;;;;4960959;29;20071;-93
2023/01/25 08:52:39;;;;;;;23.83;12.73;;;;;;;;;;4960992;28;20031;-93
2023/01/25 08:55:06;;;;;;;22.42;12.73;;;;;;;;;;4961151;28;20322;-91
2023/01/25 08:57:32;;;;;;;23.40;13.55;;;;;;;;;;4959913;28;20062;-91
2023/01/25 08:59:58;;;;;;;25.67;14.30;;;;;;;;;;4960957;29;20027;-92
2023/01/25 09:02:24;;;;;;;30.73;16.08;;;;;;;;;;4961001;28;20061;-91
2023/01/25 09:04:50;;;;;;;41.70;22.38;;;;;;;;;;4960871;29;20023;-91
2023/01/25 09:07:16;;;;;;;23.90;12.95;;;;;;;;;;4959874;28;20054;-92
2023/01/25 09:09:43;;;;;;;21.00;11.55;;;;;;;;;;4960455;28;20051;-91
2023/01/25 09:12:09;;;;;;;22.98;13.82;;;;;;;;;;4959766;28;20079;-91
2023/01/25 09:14:37;;;;;;;31.35;16.55;;;;;;;;;;4959641;28;20027;-91
2023/01/25 09:17:03;;;;;;;30.42;15.20;;;;;;;;;;4960900;28;20027;-91
2023/01/25 09:19:29;;;;;;;50.65;22.00;;;;;;;;;;4959770;28;20094;-91
2023/01/25 09:21:55;;;;;;;52.72;20.92;;;;;;;;;;4960728;28;20118;-91
2023/01/25 09:24:21;;;;;;;27.75;13.48;;;;;;;;;;4960290;28;20030;-92
2023/01/25 09:26:47;;;;;;;28.65;15.07;;;;;;;;;;4960482;28;20027;-91
2023/01/25 09:29:13;;;;;;;23.80;13.73;;;;;;;;;;4959528;28;20035;-91
2023/01/25 09:31:42;;;;;;;20.58;12.63;;;;;;;;;;4960337;29;20406;-92
2023/01/25 09:34:08;;;;;;;17.38;9.05;;;;;;;;;;4960287;28;20114;-92
2023/01/25 09:36:35;;;;;;;18.98;10.57;;;;;;;;;;4960101;28;20030;-91
2023/01/25 09:39:01;;;;;;;15.38;9.18;;;;;;;;;;4959342;28;20030;-90
2023/01/25 09:41:30;;;;;;;17.33;10.15;;;;;;;;;;4959531;28;20031;-91
2023/01/25 09:43:56;;;;;;;20.13;11.02;;;;;;;;;;4960225;28;20098;-92
2023/01/25 09:46:36;;;;;;;18.85;9.95;;;;;;;;;;4960213;28;20019;-94
2023/01/25 09:49:14;;;;;;;17.30;9.85;;;;;;;;;;4959110;28;20028;-91
2023/01/25 09:51:49;;;;;;;20.83;11.00;;;;;;;;;;4959319;28;20538;-91
2023/01/25 09:54:17;;;;;;;23.63;11.52;;;;;;;;;;4960395;28;20036;-91
2023/01/25 09:56:44;;;;;;;14.75;8.40;;;;;;;;;;4959154;28;20346;-91
2023/01/25 09:59:15;;;;;;;14.18;8.15;;;;;;;;;;4958923;28;20063;-91
2023/01/25 10:01:53;;;;;;;21.00;11.23;;;;;;;;;;4960029;29;20027;-90
2023/01/25 10:04:22;;;;;;;69.53;26.05;;;;;;;;;;4959644;28;20031;-91
2023/01/25 10:07:01;;;;;;;21.27;11.30;;;;;;;;;;4959957;28;20033;-91
2023/01/25 10:09:31;;;;;;;19.73;10.00;;;;;;;;;;4958815;28;20333;-91
2023/01/25 10:12:24;;;;;;;20.25;9.68;;;;;;;;;;4958769;28;20035;-92
2023/01/25 10:14:50;;;;;;;13.65;7.25;;;;;;;;;;4955905;28;20042;-91
2023/01/25 10:17:32;;;;;;;17.60;8.10;;;;;;;;;;4958834;28;20027;-90
2023/01/25 10:19:58;;;;;;;21.20;10.85;;;;;;;;;;4959657;28;20027;-93
2023/01/25 10:22:27;;;;;;;28.75;12.43;;;;;;;;;;4959574;28;20322;-90
2023/01/25 10:24:59;;;;;;;36.55;14.18;;;;;;;;;;4959438;28;20031;-92
2023/01/25 10:27:34;;;;;;;15.48;8.45;;;;;;;;;;4959417;28;20070;-91
2023/01/25 10:30:20;;;;;;;20.17;10.55;;;;;;;;;;4958481;28;20035;-92
2023/01/25 10:32:46;;;;;;;26.27;9.73;;;;;;;;;;4959464;28;20023;-90
2023/01/25 10:35:16;;;;;;;32.03;12.35;;;;;;;;;;4959400;29;20055;-92
2023/01/25 10:37:43;;;;;;;25.35;10.45;;;;;;;;;;4959537;28;20023;-92
2023/01/25 10:40:12;;;;;;;17.23;8.90;;;;;;;;;;4959339;28;20433;-92
2023/01/25 10:42:43;;;;;;;18.20;8.80;;;;;;;;;;4958430;28;20038;-91
2023/01/25 10:45:12;;;;;;;13.30;8.05;;;;;;;;;;4959590;29;20023;-91
2023/01/25 10:47:41;;;;;;;27.75;13.32;;;;;;;;;;4959549;29;20028;-92
2023/01/25 10:50:07;;;;;;;19.50;10.10;;;;;;;;;;4959347;28;20299;-91
2023/01/25 10:52:37;;;;;;;20.25;11.27;;;;;;;;;;4959713;28;20424;-92
2023/01/25 10:55:17;;;;;;;21.42;11.27;;;;;;;;;;4963481;28;20359;-91
2023/01/25 10:57:50;;;;;;;37.55;15.57;;;;;;;;;;4963027;28;20043;-91
2023/01/25 11:00:19;;;;;;;26.23;13.13;;;;;;;;;;4962276;28;20054;-93
2023/01/25 11:02:47;;;;;;;19.52;9.68;;;;;;;;;;4963160;28;20326;-91
2023/01/25 11:05:19;;;;;;;18.20;9.57;;;;;;;;;;4962984;28;20366;-93
2023/01/25 11:07:46;;;;;;;17.52;9.18;;;;;;;;;;4963092;28;20070;-92
2023/01/25 11:10:34;;;;;;;18.60;8.68;;;;;;;;;;4962649;28;20513;-92
2023/01/25 11:13:16;;;;;;;12.05;5.50;;;;;;;;;;4962115;28;20066;-91
2023/01/25 11:15:51;;;;;;;12.27;6.32;;;;;;;;;;4962934;28;20019;-92
2023/01/25 11:18:20;;;;;;;10.35;6.35;;;;;;;;;;4963116;29;20023;-91
2023/01/25 11:20:47;;;;;;;25.30;10.60;;;;;;;;;;4962940;28;20028;-91
2023/01/25 11:23:24;;;;;;;11.38;7.00;;;;;;;;;;4962817;28;20039;-92
2023/01/25 11:25:51;;;;;;;16.33;7.47;;;;;;;;;;4962621;28;20050;-90
2023/01/25 11:28:23;;;;;;;17.35;8.35;;;;;;;;;;4962525;28;20035;-91
2023/01/25 11:30:52;;;;;;;15.48;7.60;;;;;;;;;;4962629;28;20023;-92
2023/01/25 11:33:19;;;;;;;14.85;7.47;;;;;;;;;;4954008;29;20107;-92
2023/01/25 11:36:04;;;;;;;26.30;10.57;;;;;;;;;;4959790;28;20019;-92
2023/01/25 11:38:30;;;;;;;34.40;14.20;;;;;;;;;;4997031;28;20027;-93
2023/01/25 11:41:02;;;;;;;43.95;18.38;;;;;;;;;;4981601;28;20042;-93
2023/01/25 11:43:47;;;;;;;33.10;16.15;;;;;;;;;;4982034;28;20099;-92
2023/01/25 11:46:31;;;;;;;21.33;10.55;;;;;;;;;;4982211;28;20030;-91
2023/01/25 11:49:03;;;;;;;13.40;8.45;;;;;;;;;;4981752;28;20031;-93
2023/01/25 11:51:43;;;;;;;33.28;15.88;;;;;;;;;;4980914;28;20393;-88
2023/01/25 11:54:32;;;;;;;25.95;14.15;;;;;;;;;;4981662;28;20042;-92
2023/01/25 11:56:59;;;;;;;30.70;18.33;;;;;;;;;;4981426;28;20027;-92
2023/01/25 11:59:31;;;;;;;29.52;14.90;;;;;;;;;;4996407;28;20051;-92
2023/01/25 12:02:07;;;;;;;16.77;9.18;;;;;;;;;;4992823;28;20035;-90
2023/01/25 12:04:36;;;;;;;21.20;10.80;;;;;;;;;;4956985;28;20031;-91
2023/01/25 12:07:04;;;;;;;23.85;10.48;;;;;;;;;;4957886;28;20034;-91
2023/01/25 12:09:43;;;;;;;18.10;8.25;;;;;;;;;;4942860;29;20043;-90
2023/01/25 12:12:30;;;;;;;17.75;9.43;;;;;;;;;;4942483;29;20363;-91
2023/01/25 12:15:16;;;;;;;39.60;22.35;;;;;;;;;;4957327;28;20064;-90
2023/01/25 12:17:52;;;;;;;30.63;17.42;;;;;;;;;;4942510;29;20039;-91
2023/01/25 12:20:37;;;;;;;26.40;13.35;;;;;;;;;;4942551;29;20032;-91
2023/01/25 12:23:12;;;;;;;25.33;11.45;;;;;;;;;;4957602;28;20050;-90
2023/01/25 12:25:47;;;;;;;21.83;11.27;;;;;;;;;;4942386;29;20028;-90
2023/01/25 12:28:25;;;;;;;27.08;10.73;;;;;;;;;;4957560;28;20435;-93
2023/01/25 12:31:02;;;;;;;22.15;11.50;;;;;;;;;;4942204;29;20028;-90
2023/01/25 12:33:38;;;;;;;22.25;10.63;;;;;;;;;;4942246;29;20027;-92
2023/01/25 12:36:13;;;;;;;19.05;9.82;;;;;;;;;;4942295;29;20044;-91
2023/01/25 12:38:48;;;;;;;22.77;12.15;;;;;;;;;;4957319;28;20059;-92
2023/01/25 12:41:30;;;;;;;20.98;11.20;;;;;;;;;;4957081;29;20027;-92
2023/01/25 12:43:59;;;;;;;18.20;9.68;;;;;;;;;;4957212;29;20028;-93
2023/01/25 12:46:30;;;;;;;20.15;10.77;;;;;;;;;;4950155;29;20035;-92
2023/01/25 12:48:59;;;;;;;15.45;9.73;;;;;;;;;;4974032;28;20050;-91
2023/01/25 12:51:27;;;;;;;14.25;8.60;;;;;;;;;;4955561;28;20058;-92
2023/01/25 12:53:54;;;;;;;80.53;27.67;;;;;;;;;;4960130;29;20047;-90
2023/01/25 12:56:28;;;;;;;87.68;30.35;;;;;;;;;;4949173;28;20041;-91
2023/01/25 12:59:01;;;;;;;40.60;16.98;;;;;;;;;;4952420;28;20076;-90
2023/01/25 13:01:33;;;;;;;49.83;23.38;;;;;;;;;;4952709;28;20035;-91
2023/01/25 13:04:19;;;;;;;26.67;13.38;;;;;;;;;;4950916;29;20111;-91
2023/01/25 13:06:55;;;;;;;32.72;16.23;;;;;;;;;;4964064;28;20035;-91
2023/01/25 13:09:22;;;;;;;27.13;12.68;;;;;;;;;;4956404;29;20038;-92
2023/01/25 13:11:48;;;;;;;32.55;14.68;;;;;;;;;;4951377;29;20035;-93
2023/01/25 13:14:18;;;;;;;76.60;20.63;;;;;;;;;;4955803;29;20107;-93
2023/01/25 13:16:54;;;;;;;63.95;24.75;;;;;;;;;;4941698;29;20327;-91
2023/01/25 13:19:29;;;;;;;60.80;21.55;;;;;;;;;;4941404;29;20115;-94
2023/01/25 13:21:57;;;;;;;49.05;21.90;;;;;;;;;;4940829;29;20410;-93
2023/01/25 13:24:27;;;;;;;47.47;21.75;;;;;;;;;;4941801;29;20322;-93
2023/01/25 13:26:53;;;;;;;29.60;15.35;;;;;;;;;;4941359;29;20103;-94
2023/01/25 13:29:31;;;;;;;31.58;16.25;;;;;;;;;;4940245;29;20036;-92
2023/01/25 13:31:58;;;;;;;29.13;12.23;;;;;;;;;;4950539;29;20089;-92
2023/01/25 13:34:38;;;;;;;36.92;15.10;;;;;;;;;;4959089;28;20038;-86
2023/01/25 13:37:13;;;;;;;39.10;16.70;;;;;;;;;;4960588;28;20027;-90
2023/01/25 13:39:40;;;;;;;22.00;12.75;;;;;;;;;;4959254;28;20023;-88
2023/01/25 13:42:09;;;;;;;20.95;11.05;;;;;;;;;;4955810;28;20314;-89
2023/01/25 13:44:38;;;;;;;20.58;11.63;;;;;;;;;;4949021;29;20038;-89
2023/01/25 13:47:06;;;;;;;27.95;15.68;;;;;;;;;;4957011;29;20050;-87
2023/01/25 13:49:41;;;;;;;18.95;11.65;;;;;;;;;;4959129;28;20015;-89
2023/01/25 13:52:07;;;;;;;29.92;12.80;;;;;;;;;;4956150;28;20051;-87
2023/01/25 13:54:41;;;;;;;19.67;12.25;;;;;;;;;;4950849;28;20023;-89
2023/01/25 13:57:12;;;;;;;19.45;12.02;;;;;;;;;;4941314;29;20036;-89
2023/01/25 13:59:38;;;;;;;21.73;12.88;;;;;;;;;;4950520;28;20054;-88
2023/01/25 14:02:13;;;;;;;39.80;19.75;;;;;;;;;;4960126;29;20034;-89
2023/01/25 14:04:39;;;;;;;40.80;20.38;;;;;;;;;;4960274;29;20098;-89
2023/01/25 14:07:08;;;;;;;31.95;18.27;;;;;;;;;;4959800;28;20066;-88
2023/01/25 14:09:35;;;;;;;29.63;16.88;;;;;;;;;;4959636;28;20351;-88
2023/01/25 14:12:02;;;;;;;27.48;16.67;;;;;;;;;;4958828;28;20034;-88
2023/01/25 14:14:33;;;;;;;25.40;15.25;;;;;;;;;;4958464;28;20090;-88
2023/01/25 14:17:05;;;;;;;23.98;14.50;;;;;;;;;;4960132;29;20047;-92
2023/01/25 14:19:32;;;;;;;23.33;14.90;;;;;;;;;;4959011;29;20047;-89
2023/01/25 14:25:26;;;;;;;25.75;15.93;;;;;;;;;;4959789;28;20033;-87
2023/01/25 14:27:54;;;;;;;30.05;20.10;;;;;;;;;;4958959;28;20322;-88
2023/01/25 14:30:25;;;;;;;31.73;21.27;;;;;;;;;;4974877;28;20027;-87
2023/01/25 14:32:52;;;;;;;27.50;19.13;;;;;;;;;;4979211;28;20461;-87
2023/01/25 14:35:31;;;;;;;28.83;19.15;;;;;;;;;;4975346;28;20043;-88
2023/01/25 14:37:59;;;;;;;37.25;20.90;;;;;;;;;;4951574;28;20042;-88
2023/01/25 14:40:26;;;;;;;39.55;21.48;;;;;;;;;;4955914;28;20063;-87
2023/01/25 14:42:53;;;;;;;50.50;24.58;;;;;;;;;;4946223;29;20079;-87
2023/01/25 14:45:21;;;;;;;35.88;20.98;;;;;;;;;;4959662;29;20390;-87
2023/01/25 14:47:47;;;;;;;35.63;20.25;;;;;;;;;;4959629;29;20333;-88
2023/01/25 14:50:32;;;;;;;36.53;21.95;;;;;;;;;;4958336;29;20082;-87
2023/01/25 14:52:59;;;;;;;39.25;23.98;;;;;;;;;;4958402;29;20042;-89
2023/01/25 14:55:26;;;;;;;44.20;26.27;;;;;;;;;;4974537;28;20023;-88
2023/01/25 14:57:52;;;;;;;44.83;26.48;;;;;;;;;;4974222;28;20056;-89
2023/01/25 15:00:20;;;;;;;90.30;48.83;;;;;;;;;;4959555;29;20065;-88
2023/01/25 15:02:48;;;;;;;91.95;52.47;;;;;;;;;;4974459;28;20117;-87
2023/01/25 15:05:17;;;;;;;95.70;45.80;;;;;;;;;;4974382;28;20039;-86
2023/01/25 15:07:44;;;;;;;134.55;53.38;;;;;;;;;;4959119;28;20027;-89
2023/01/25 15:10:27;;;;;;;124.80;49.90;;;;;;;;;;4974156;28;20322;-87
2023/01/25 15:12:59;;;;;;;88.75;31.95;;;;;;;;;;4974232;28;20042;-87
2023/01/25 15:15:27;;;;;;;49.25;22.48;;;;;;;;;;4959408;28;20042;-87
2023/01/25 15:17:54;;;;;;;44.30;22.10;;;;;;;;;;4974296;28;20032;-88
2023/01/25 15:20:40;;;;;;;44.47;22.60;;;;;;;;;;4974280;28;20031;-88
2023/01/25 15:23:24;;;;;;;42.65;22.48;;;;;;;;;;4959011;28;20023;-87